sensor_id;sensor_type;location;lat;lon;timestamp;P1;durP1;ratioP1;P2;durP2;ratioP2
57846;SDS011;43675;50.030;21.952;2023-07-13T00:01:31;28.40;;;26.00;;
57846;SDS011;43675;50.030;21.952;2023-07-13T00:03:59;28.70;;;26.20;;
57846;SDS011;43675;50.030;21.952;2023-07-13T00:06:25;30.10;;;27.00;;
57846;SDS011;43675;50.030;21.952;2023-07-13T00:08:52;29.30;;;26.70;;
57846;SDS011;43675;50.030;21.952;2023-07-13T00:11:18;29.90;;;27.30;;
57846;SDS011;43675;50.030;21.952;2023-07-13T00:13:45;29.30;;;26.70;;
57846;SDS011;43675;50.030;21.952;2023-07-13T00:16:12;29.00;;;26.70;;
57846;SDS011;43675;50.030;21.952;2023-07-13T00:18:40;29.50;;;26.80;;
57846;SDS011;43675;50.030;21.952;2023-07-13T00:21:07;29.90;;;27.00;;
57846;SDS011;43675;50.030;21.952;2023-07-13T00:23:37;31.30;;;28.30;;
57846;SDS011;43675;50.030;21.952;2023-07-13T00:26:06;30.00;;;27.40;;
57846;SDS011;43675;50.030;21.952;2023-07-13T00:28:34;29.60;;;26.70;;
57846;SDS011;43675;50.030;21.952;2023-07-13T00:31:01;30.20;;;27.60;;
57846;SDS011;43675;50.030;21.952;2023-07-13T00:33:28;30.20;;;27.60;;
57846;SDS011;43675;50.030;21.952;2023-07-13T00:35:55;31.00;;;28.10;;
57846;SDS011;43675;50.030;21.952;2023-07-13T00:38:22;30.60;;;27.70;;
57846;SDS011;43675;50.030;21.952;2023-07-13T00:40:49;30.80;;;28.10;;
57846;SDS011;43675;50.030;21.952;2023-07-13T00:43:17;29.90;;;27.20;;
57846;SDS011;43675;50.030;21.952;2023-07-13T00:48:13;31.20;;;28.10;;
57846;SDS011;43675;50.030;21.952;2023-07-13T00:50:43;30.00;;;27.30;;
57846;SDS011;43675;50.030;21.952;2023-07-13T00:53:12;30.90;;;27.80;;
57846;SDS011;43675;50.030;21.952;2023-07-13T00:55:39;31.10;;;28.50;;
57846;SDS011;43675;50.030;21.952;2023-07-13T00:58:06;30.30;;;27.80;;
57846;SDS011;43675;50.030;21.952;2023-07-13T01:00:34;30.80;;;28.20;;
57846;SDS011;43675;50.030;21.952;2023-07-13T01:03:02;29.30;;;27.00;;
57846;SDS011;43675;50.030;21.952;2023-07-13T01:05:30;28.20;;;25.90;;
57846;SDS011;43675;50.030;21.952;2023-07-13T01:08:00;29.80;;;27.40;;
57846;SDS011;43675;50.030;21.952;2023-07-13T01:10:29;30.70;;;28.00;;
57846;SDS011;43675;50.030;21.952;2023-07-13T01:12:55;30.60;;;28.00;;
57846;SDS011;43675;50.030;21.952;2023-07-13T01:18:23;29.20;;;26.80;;
57846;SDS011;43675;50.030;21.952;2023-07-13T01:20:53;29.70;;;27.00;;
57846;SDS011;43675;50.030;21.952;2023-07-13T01:23:25;28.90;;;26.70;;
57846;SDS011;43675;50.030;21.952;2023-07-13T01:25:53;30.30;;;27.30;;
57846;SDS011;43675;50.030;21.952;2023-07-13T01:28:20;28.60;;;26.20;;
57846;SDS011;43675;50.030;21.952;2023-07-13T01:30:48;29.20;;;26.70;;
57846;SDS011;43675;50.030;21.952;2023-07-13T01:33:15;30.00;;;27.10;;
57846;SDS011;43675;50.030;21.952;2023-07-13T01:35:44;28.20;;;26.00;;
57846;SDS011;43675;50.030;21.952;2023-07-13T01:38:14;29.00;;;26.60;;
57846;SDS011;43675;50.030;21.952;2023-07-13T01:40:42;28.30;;;26.00;;
57846;SDS011;43675;50.030;21.952;2023-07-13T01:43:09;27.90;;;25.60;;
57846;SDS011;43675;50.030;21.952;2023-07-13T01:45:36;26.20;;;24.00;;
57846;SDS011;43675;50.030;21.952;2023-07-13T01:48:02;26.50;;;24.20;;
57846;SDS011;43675;50.030;21.952;2023-07-13T01:50:29;26.60;;;24.30;;
57846;SDS011;43675;50.030;21.952;2023-07-13T01:52:56;27.20;;;24.60;;
57846;SDS011;43675;50.030;21.952;2023-07-13T01:55:22;26.30;;;24.10;;
57846;SDS011;43675;50.030;21.952;2023-07-13T01:57:49;26.90;;;24.40;;
57846;SDS011;43675;50.030;21.952;2023-07-13T02:00:16;27.50;;;24.90;;
57846;SDS011;43675;50.030;21.952;2023-07-13T02:02:43;26.30;;;23.90;;
57846;SDS011;43675;50.030;21.952;2023-07-13T02:05:10;27.00;;;24.60;;
57846;SDS011;43675;50.030;21.952;2023-07-13T02:07:38;26.90;;;24.40;;
57846;SDS011;43675;50.030;21.952;2023-07-13T02:10:06;26.80;;;24.50;;
57846;SDS011;43675;50.030;21.952;2023-07-13T02:12:34;26.40;;;24.10;;
57846;SDS011;43675;50.030;21.952;2023-07-13T02:15:01;26.90;;;24.50;;
57846;SDS011;43675;50.030;21.952;2023-07-13T02:17:28;25.70;;;23.40;;
57846;SDS011;43675;50.030;21.952;2023-07-13T02:19:54;26.50;;;24.20;;
57846;SDS011;43675;50.030;21.952;2023-07-13T02:22:21;27.20;;;24.60;;
57846;SDS011;43675;50.030;21.952;2023-07-13T02:24:49;26.10;;;23.60;;
57846;SDS011;43675;50.030;21.952;2023-07-13T02:27:15;27.70;;;25.10;;
57846;SDS011;43675;50.030;21.952;2023-07-13T02:29:42;25.20;;;23.10;;
57846;SDS011;43675;50.030;21.952;2023-07-13T02:32:09;27.20;;;24.70;;
57846;SDS011;43675;50.030;21.952;2023-07-13T02:34:35;27.40;;;25.00;;
57846;SDS011;43675;50.030;21.952;2023-07-13T02:37:02;27.50;;;25.10;;
57846;SDS011;43675;50.030;21.952;2023-07-13T02:39:29;27.30;;;24.90;;
57846;SDS011;43675;50.030;21.952;2023-07-13T02:41:56;27.30;;;24.80;;
57846;SDS011;43675;50.030;21.952;2023-07-13T02:44:22;27.00;;;24.50;;
57846;SDS011;43675;50.030;21.952;2023-07-13T02:46:49;26.70;;;24.30;;
57846;SDS011;43675;50.030;21.952;2023-07-13T02:49:15;26.10;;;23.80;;
57846;SDS011;43675;50.030;21.952;2023-07-13T02:51:42;25.60;;;23.20;;
57846;SDS011;43675;50.030;21.952;2023-07-13T02:54:09;27.70;;;25.20;;
57846;SDS011;43675;50.030;21.952;2023-07-13T02:56:36;26.70;;;24.30;;
57846;SDS011;43675;50.030;21.952;2023-07-13T02:59:03;26.70;;;24.20;;
57846;SDS011;43675;50.030;21.952;2023-07-13T03:01:29;26.00;;;23.60;;
57846;SDS011;43675;50.030;21.952;2023-07-13T03:03:56;27.00;;;24.20;;
57846;SDS011;43675;50.030;21.952;2023-07-13T03:06:22;26.80;;;24.40;;
57846;SDS011;43675;50.030;21.952;2023-07-13T03:08:49;26.40;;;24.10;;
57846;SDS011;43675;50.030;21.952;2023-07-13T03:11:17;26.40;;;23.80;;
57846;SDS011;43675;50.030;21.952;2023-07-13T03:13:46;25.30;;;23.10;;
57846;SDS011;43675;50.030;21.952;2023-07-13T03:16:14;25.80;;;23.60;;
57846;SDS011;43675;50.030;21.952;2023-07-13T03:18:41;25.20;;;23.00;;
57846;SDS011;43675;50.030;21.952;2023-07-13T03:21:08;24.50;;;22.30;;
57846;SDS011;43675;50.030;21.952;2023-07-13T03:23:35;24.00;;;21.70;;
57846;SDS011;43675;50.030;21.952;2023-07-13T03:26:09;24.10;;;22.00;;
57846;SDS011;43675;50.030;21.952;2023-07-13T03:28:39;25.00;;;22.70;;
57846;SDS011;43675;50.030;21.952;2023-07-13T03:31:07;24.40;;;22.50;;
57846;SDS011;43675;50.030;21.952;2023-07-13T03:33:36;24.50;;;22.40;;
57846;SDS011;43675;50.030;21.952;2023-07-13T03:36:06;25.40;;;22.90;;
57846;SDS011;43675;50.030;21.952;2023-07-13T03:38:34;26.60;;;24.00;;
57846;SDS011;43675;50.030;21.952;2023-07-13T03:41:00;25.30;;;23.10;;
57846;SDS011;43675;50.030;21.952;2023-07-13T03:43:27;24.50;;;22.30;;
57846;SDS011;43675;50.030;21.952;2023-07-13T03:45:53;25.40;;;23.00;;
57846;SDS011;43675;50.030;21.952;2023-07-13T03:48:20;26.00;;;23.50;;
57846;SDS011;43675;50.030;21.952;2023-07-13T03:50:47;26.00;;;23.40;;
57846;SDS011;43675;50.030;21.952;2023-07-13T03:53:14;26.30;;;23.80;;
57846;SDS011;43675;50.030;21.952;2023-07-13T03:55:40;26.00;;;23.70;;
57846;SDS011;43675;50.030;21.952;2023-07-13T03:58:26;25.60;;;23.10;;
57846;SDS011;43675;50.030;21.952;2023-07-13T04:00:54;26.30;;;23.50;;
57846;SDS011;43675;50.030;21.952;2023-07-13T04:03:21;26.00;;;23.60;;
57846;SDS011;43675;50.030;21.952;2023-07-13T04:05:48;26.40;;;24.00;;
57846;SDS011;43675;50.030;21.952;2023-07-13T04:08:15;25.80;;;23.20;;
57846;SDS011;43675;50.030;21.952;2023-07-13T04:10:42;26.40;;;24.00;;
57846;SDS011;43675;50.030;21.952;2023-07-13T04:13:09;26.80;;;24.40;;
57846;SDS011;43675;50.030;21.952;2023-07-13T04:15:39;27.40;;;24.90;;
57846;SDS011;43675;50.030;21.952;2023-07-13T04:18:05;26.30;;;24.10;;
57846;SDS011;43675;50.030;21.952;2023-07-13T04:20:32;27.70;;;24.80;;
57846;SDS011;43675;50.030;21.952;2023-07-13T04:22:58;26.80;;;24.30;;
57846;SDS011;43675;50.030;21.952;2023-07-13T04:25:25;28.10;;;25.20;;
57846;SDS011;43675;50.030;21.952;2023-07-13T04:27:52;27.00;;;24.70;;
57846;SDS011;43675;50.030;21.952;2023-07-13T04:30:19;26.40;;;23.80;;
57846;SDS011;43675;50.030;21.952;2023-07-13T04:32:46;27.10;;;24.50;;
57846;SDS011;43675;50.030;21.952;2023-07-13T04:35:13;27.00;;;24.50;;
57846;SDS011;43675;50.030;21.952;2023-07-13T04:37:40;26.70;;;24.20;;
57846;SDS011;43675;50.030;21.952;2023-07-13T04:40:08;26.30;;;24.10;;
57846;SDS011;43675;50.030;21.952;2023-07-13T04:42:35;25.50;;;23.30;;
57846;SDS011;43675;50.030;21.952;2023-07-13T04:45:01;25.70;;;23.40;;
57846;SDS011;43675;50.030;21.952;2023-07-13T04:47:29;24.50;;;22.50;;
57846;SDS011;43675;50.030;21.952;2023-07-13T04:49:57;24.90;;;22.80;;
57846;SDS011;43675;50.030;21.952;2023-07-13T04:52:23;24.90;;;22.60;;
57846;SDS011;43675;50.030;21.952;2023-07-13T04:54:50;25.10;;;22.80;;
57846;SDS011;43675;50.030;21.952;2023-07-13T04:57:17;25.00;;;22.70;;
57846;SDS011;43675;50.030;21.952;2023-07-13T04:59:43;25.40;;;23.00;;
57846;SDS011;43675;50.030;21.952;2023-07-13T05:02:10;24.60;;;22.50;;
57846;SDS011;43675;50.030;21.952;2023-07-13T05:04:36;24.00;;;22.00;;
57846;SDS011;43675;50.030;21.952;2023-07-13T05:07:03;23.50;;;21.60;;
57846;SDS011;43675;50.030;21.952;2023-07-13T05:09:31;23.70;;;21.30;;
57846;SDS011;43675;50.030;21.952;2023-07-13T05:11:58;24.40;;;22.10;;
57846;SDS011;43675;50.030;21.952;2023-07-13T05:14:24;23.50;;;21.30;;
57846;SDS011;43675;50.030;21.952;2023-07-13T05:16:51;22.40;;;20.40;;
57846;SDS011;43675;50.030;21.952;2023-07-13T05:19:18;23.30;;;21.20;;
57846;SDS011;43675;50.030;21.952;2023-07-13T05:21:44;22.60;;;20.60;;
57846;SDS011;43675;50.030;21.952;2023-07-13T05:24:11;23.10;;;21.10;;
57846;SDS011;43675;50.030;21.952;2023-07-13T05:26:37;23.50;;;21.40;;
57846;SDS011;43675;50.030;21.952;2023-07-13T05:29:04;24.00;;;21.70;;
57846;SDS011;43675;50.030;21.952;2023-07-13T05:31:30;23.60;;;21.40;;
57846;SDS011;43675;50.030;21.952;2023-07-13T05:33:57;23.00;;;20.90;;
57846;SDS011;43675;50.030;21.952;2023-07-13T05:36:26;22.80;;;20.90;;
57846;SDS011;43675;50.030;21.952;2023-07-13T05:38:53;23.20;;;20.80;;
57846;SDS011;43675;50.030;21.952;2023-07-13T05:41:19;22.70;;;20.80;;
57846;SDS011;43675;50.030;21.952;2023-07-13T05:43:46;23.80;;;21.40;;
57846;SDS011;43675;50.030;21.952;2023-07-13T05:46:12;22.90;;;20.90;;
57846;SDS011;43675;50.030;21.952;2023-07-13T05:48:39;22.90;;;20.90;;
57846;SDS011;43675;50.030;21.952;2023-07-13T05:51:05;22.90;;;20.80;;
57846;SDS011;43675;50.030;21.952;2023-07-13T05:53:32;23.60;;;21.30;;
57846;SDS011;43675;50.030;21.952;2023-07-13T05:56:00;23.40;;;21.30;;
57846;SDS011;43675;50.030;21.952;2023-07-13T05:58:26;23.40;;;21.30;;
57846;SDS011;43675;50.030;21.952;2023-07-13T06:01:02;22.30;;;20.40;;
57846;SDS011;43675;50.030;21.952;2023-07-13T06:03:34;22.40;;;20.30;;
57846;SDS011;43675;50.030;21.952;2023-07-13T06:06:01;23.00;;;21.00;;
57846;SDS011;43675;50.030;21.952;2023-07-13T06:08:28;22.90;;;21.00;;
57846;SDS011;43675;50.030;21.952;2023-07-13T06:10:55;23.70;;;21.60;;
57846;SDS011;43675;50.030;21.952;2023-07-13T06:13:28;22.60;;;20.50;;
57846;SDS011;43675;50.030;21.952;2023-07-13T06:15:55;24.20;;;22.10;;
57846;SDS011;43675;50.030;21.952;2023-07-13T06:18:21;23.00;;;21.10;;
57846;SDS011;43675;50.030;21.952;2023-07-13T06:20:48;23.70;;;21.70;;
57846;SDS011;43675;50.030;21.952;2023-07-13T06:23:14;23.40;;;21.30;;
57846;SDS011;43675;50.030;21.952;2023-07-13T06:25:41;23.10;;;21.20;;
57846;SDS011;43675;50.030;21.952;2023-07-13T06:28:07;23.00;;;21.00;;
57846;SDS011;43675;50.030;21.952;2023-07-13T06:30:34;23.30;;;21.20;;
57846;SDS011;43675;50.030;21.952;2023-07-13T06:33:00;23.50;;;21.40;;
57846;SDS011;43675;50.030;21.952;2023-07-13T06:35:27;23.40;;;21.50;;
57846;SDS011;43675;50.030;21.952;2023-07-13T06:37:53;24.20;;;22.00;;
57846;SDS011;43675;50.030;21.952;2023-07-13T06:40:20;23.10;;;21.10;;
57846;SDS011;43675;50.030;21.952;2023-07-13T06:42:46;23.10;;;21.10;;
57846;SDS011;43675;50.030;21.952;2023-07-13T06:45:13;22.90;;;21.00;;
57846;SDS011;43675;50.030;21.952;2023-07-13T06:47:39;23.40;;;21.50;;
57846;SDS011;43675;50.030;21.952;2023-07-13T06:50:06;22.90;;;20.90;;
57846;SDS011;43675;50.030;21.952;2023-07-13T06:52:32;22.80;;;20.80;;
57846;SDS011;43675;50.030;21.952;2023-07-13T06:54:59;22.80;;;20.80;;
57846;SDS011;43675;50.030;21.952;2023-07-13T06:57:26;22.70;;;20.70;;
57846;SDS011;43675;50.030;21.952;2023-07-13T06:59:52;22.20;;;20.30;;
57846;SDS011;43675;50.030;21.952;2023-07-13T07:02:19;23.00;;;21.00;;
57846;SDS011;43675;50.030;21.952;2023-07-13T07:04:45;22.80;;;20.90;;
57846;SDS011;43675;50.030;21.952;2023-07-13T07:07:12;22.10;;;20.20;;
57846;SDS011;43675;50.030;21.952;2023-07-13T07:09:38;22.50;;;20.50;;
57846;SDS011;43675;50.030;21.952;2023-07-13T07:12:05;22.80;;;20.90;;
57846;SDS011;43675;50.030;21.952;2023-07-13T07:14:32;22.30;;;20.50;;
57846;SDS011;43675;50.030;21.952;2023-07-13T07:16:58;22.50;;;20.60;;
57846;SDS011;43675;50.030;21.952;2023-07-13T07:19:25;21.60;;;19.70;;
57846;SDS011;43675;50.030;21.952;2023-07-13T07:21:51;21.90;;;19.90;;
57846;SDS011;43675;50.030;21.952;2023-07-13T07:24:18;22.30;;;20.20;;
57846;SDS011;43675;50.030;21.952;2023-07-13T07:26:44;21.70;;;19.70;;
57846;SDS011;43675;50.030;21.952;2023-07-13T07:29:11;21.30;;;19.60;;
57846;SDS011;43675;50.030;21.952;2023-07-13T07:31:37;21.60;;;19.90;;
57846;SDS011;43675;50.030;21.952;2023-07-13T07:34:04;21.90;;;20.10;;
57846;SDS011;43675;50.030;21.952;2023-07-13T07:36:30;23.40;;;20.90;;
57846;SDS011;43675;50.030;21.952;2023-07-13T07:38:57;22.60;;;20.50;;
57846;SDS011;43675;50.030;21.952;2023-07-13T07:41:23;22.60;;;20.50;;
57846;SDS011;43675;50.030;21.952;2023-07-13T07:43:50;22.70;;;20.50;;
57846;SDS011;43675;50.030;21.952;2023-07-13T07:46:16;21.70;;;19.90;;
57846;SDS011;43675;50.030;21.952;2023-07-13T07:48:43;22.20;;;20.10;;
57846;SDS011;43675;50.030;21.952;2023-07-13T07:51:09;22.10;;;20.30;;
57846;SDS011;43675;50.030;21.952;2023-07-13T07:53:36;21.60;;;19.80;;
57846;SDS011;43675;50.030;21.952;2023-07-13T07:56:02;21.90;;;20.10;;
57846;SDS011;43675;50.030;21.952;2023-07-13T07:58:29;22.50;;;20.70;;
57846;SDS011;43675;50.030;21.952;2023-07-13T08:01:05;21.50;;;19.70;;
57846;SDS011;43675;50.030;21.952;2023-07-13T08:03:32;21.50;;;19.70;;
57846;SDS011;43675;50.030;21.952;2023-07-13T08:05:58;20.90;;;19.20;;
57846;SDS011;43675;50.030;21.952;2023-07-13T08:08:25;21.60;;;19.90;;
57846;SDS011;43675;50.030;21.952;2023-07-13T08:10:52;21.50;;;19.80;;
57846;SDS011;43675;50.030;21.952;2023-07-13T08:13:19;22.30;;;20.00;;
57846;SDS011;43675;50.030;21.952;2023-07-13T08:15:46;21.70;;;19.70;;
57846;SDS011;43675;50.030;21.952;2023-07-13T08:18:12;21.70;;;19.80;;
57846;SDS011;43675;50.030;21.952;2023-07-13T08:20:39;21.30;;;19.50;;
57846;SDS011;43675;50.030;21.952;2023-07-13T08:23:06;21.80;;;20.00;;
57846;SDS011;43675;50.030;21.952;2023-07-13T08:25:35;21.80;;;20.00;;
57846;SDS011;43675;50.030;21.952;2023-07-13T08:28:02;21.30;;;19.40;;
57846;SDS011;43675;50.030;21.952;2023-07-13T08:30:30;21.40;;;19.50;;
57846;SDS011;43675;50.030;21.952;2023-07-13T08:32:57;21.40;;;19.50;;
57846;SDS011;43675;50.030;21.952;2023-07-13T08:35:25;20.60;;;18.70;;
57846;SDS011;43675;50.030;21.952;2023-07-13T08:37:51;20.10;;;18.40;;
57846;SDS011;43675;50.030;21.952;2023-07-13T08:40:18;20.10;;;18.50;;
57846;SDS011;43675;50.030;21.952;2023-07-13T08:42:53;20.40;;;18.70;;
57846;SDS011;43675;50.030;21.952;2023-07-13T08:45:25;19.80;;;18.30;;
57846;SDS011;43675;50.030;21.952;2023-07-13T08:48:00;19.90;;;18.20;;
57846;SDS011;43675;50.030;21.952;2023-07-13T08:50:33;20.50;;;18.70;;
57846;SDS011;43675;50.030;21.952;2023-07-13T08:55:34;19.60;;;18.00;;
57846;SDS011;43675;50.030;21.952;2023-07-13T08:58:09;20.30;;;18.80;;
57846;SDS011;43675;50.030;21.952;2023-07-13T09:00:48;20.90;;;19.10;;
57846;SDS011;43675;50.030;21.952;2023-07-13T09:03:22;20.40;;;18.80;;
57846;SDS011;43675;50.030;21.952;2023-07-13T09:05:52;20.80;;;19.00;;
57846;SDS011;43675;50.030;21.952;2023-07-13T09:11:47;21.20;;;19.50;;
57846;SDS011;43675;50.030;21.952;2023-07-13T09:14:34;20.60;;;19.00;;
57846;SDS011;43675;50.030;21.952;2023-07-13T09:17:18;20.30;;;18.70;;
57846;SDS011;43675;50.030;21.952;2023-07-13T09:19:53;19.90;;;18.40;;
57846;SDS011;43675;50.030;21.952;2023-07-13T09:22:24;20.10;;;18.50;;
57846;SDS011;43675;50.030;21.952;2023-07-13T09:25:00;20.30;;;18.70;;
57846;SDS011;43675;50.030;21.952;2023-07-13T09:27:35;19.50;;;18.00;;
57846;SDS011;43675;50.030;21.952;2023-07-13T09:32:42;18.90;;;17.40;;
57846;SDS011;43675;50.030;21.952;2023-07-13T09:35:27;19.20;;;17.60;;
57846;SDS011;43675;50.030;21.952;2023-07-13T09:37:59;18.80;;;17.40;;
57846;SDS011;43675;50.030;21.952;2023-07-13T09:40:39;19.20;;;17.50;;
57846;SDS011;43675;50.030;21.952;2023-07-13T09:43:19;19.00;;;17.50;;
57846;SDS011;43675;50.030;21.952;2023-07-13T09:45:47;19.20;;;17.60;;
57846;SDS011;43675;50.030;21.952;2023-07-13T09:48:14;18.50;;;17.20;;
57846;SDS011;43675;50.030;21.952;2023-07-13T09:50:43;18.90;;;17.50;;
57846;SDS011;43675;50.030;21.952;2023-07-13T09:53:17;19.90;;;18.40;;
57846;SDS011;43675;50.030;21.952;2023-07-13T09:55:46;19.40;;;17.90;;
57846;SDS011;43675;50.030;21.952;2023-07-13T09:58:15;20.10;;;18.40;;
57846;SDS011;43675;50.030;21.952;2023-07-13T10:00:59;19.80;;;18.20;;
57846;SDS011;43675;50.030;21.952;2023-07-13T10:03:34;19.20;;;17.80;;
57846;SDS011;43675;50.030;21.952;2023-07-13T10:06:12;19.70;;;18.00;;
57846;SDS011;43675;50.030;21.952;2023-07-13T10:08:43;19.80;;;18.10;;
57846;SDS011;43675;50.030;21.952;2023-07-13T10:13:56;19.70;;;18.10;;
57846;SDS011;43675;50.030;21.952;2023-07-13T10:16:25;19.70;;;18.20;;
57846;SDS011;43675;50.030;21.952;2023-07-13T10:18:58;20.30;;;18.70;;
57846;SDS011;43675;50.030;21.952;2023-07-13T10:24:23;19.80;;;18.20;;
57846;SDS011;43675;50.030;21.952;2023-07-13T10:26:56;19.60;;;18.10;;
57846;SDS011;43675;50.030;21.952;2023-07-13T10:29:28;19.10;;;17.70;;
57846;SDS011;43675;50.030;21.952;2023-07-13T10:32:00;19.50;;;18.00;;
57846;SDS011;43675;50.030;21.952;2023-07-13T10:34:26;19.50;;;17.80;;
57846;SDS011;43675;50.030;21.952;2023-07-13T10:36:54;19.70;;;17.80;;
57846;SDS011;43675;50.030;21.952;2023-07-13T10:39:21;19.00;;;17.50;;
57846;SDS011;43675;50.030;21.952;2023-07-13T10:41:53;19.90;;;18.20;;
57846;SDS011;43675;50.030;21.952;2023-07-13T10:44:28;28.10;;;18.40;;
57846;SDS011;43675;50.030;21.952;2023-07-13T10:47:01;19.40;;;17.80;;
57846;SDS011;43675;50.030;21.952;2023-07-13T10:49:32;19.60;;;18.00;;
57846;SDS011;43675;50.030;21.952;2023-07-13T10:52:00;19.30;;;17.60;;
57846;SDS011;43675;50.030;21.952;2023-07-13T10:54:30;18.80;;;17.30;;
57846;SDS011;43675;50.030;21.952;2023-07-13T10:57:10;19.10;;;17.40;;
57846;SDS011;43675;50.030;21.952;2023-07-13T11:02:41;19.30;;;17.70;;
57846;SDS011;43675;50.030;21.952;2023-07-13T11:05:28;18.30;;;16.90;;
57846;SDS011;43675;50.030;21.952;2023-07-13T11:07:56;18.00;;;16.70;;
57846;SDS011;43675;50.030;21.952;2023-07-13T11:10:47;24.00;;;17.70;;
57846;SDS011;43675;50.030;21.952;2023-07-13T11:21:29;18.70;;;17.10;;
57846;SDS011;43675;50.030;21.952;2023-07-13T11:26:44;19.00;;;17.00;;
57846;SDS011;43675;50.030;21.952;2023-07-13T11:31:53;18.80;;;17.20;;
57846;SDS011;43675;50.030;21.952;2023-07-13T11:34:29;18.20;;;16.60;;
57846;SDS011;43675;50.030;21.952;2023-07-13T11:37:00;18.90;;;17.40;;
57846;SDS011;43675;50.030;21.952;2023-07-13T11:39:31;19.20;;;17.60;;
57846;SDS011;43675;50.030;21.952;2023-07-13T11:42:00;19.00;;;17.50;;
57846;SDS011;43675;50.030;21.952;2023-07-13T11:44:30;20.20;;;18.50;;
57846;SDS011;43675;50.030;21.952;2023-07-13T11:46:59;19.30;;;17.70;;
57846;SDS011;43675;50.030;21.952;2023-07-13T11:49:42;19.10;;;17.60;;
57846;SDS011;43675;50.030;21.952;2023-07-13T11:52:11;19.50;;;18.00;;
57846;SDS011;43675;50.030;21.952;2023-07-13T11:54:56;57.30;;;19.50;;
57846;SDS011;43675;50.030;21.952;2023-07-13T11:57:33;22.30;;;20.30;;
57846;SDS011;43675;50.030;21.952;2023-07-13T12:00:09;33.40;;;24.40;;
57846;SDS011;43675;50.030;21.952;2023-07-13T12:02:40;25.60;;;23.10;;
57846;SDS011;43675;50.030;21.952;2023-07-13T12:05:10;26.70;;;23.80;;
57846;SDS011;43675;50.030;21.952;2023-07-13T12:07:39;21.10;;;19.30;;
57846;SDS011;43675;50.030;21.952;2023-07-13T12:10:20;20.40;;;18.80;;
57846;SDS011;43675;50.030;21.952;2023-07-13T12:12:56;19.20;;;17.60;;
57846;SDS011;43675;50.030;21.952;2023-07-13T12:15:28;19.50;;;17.60;;
57846;SDS011;43675;50.030;21.952;2023-07-13T12:18:11;19.20;;;17.40;;
57846;SDS011;43675;50.030;21.952;2023-07-13T12:20:48;19.60;;;17.70;;
57846;SDS011;43675;50.030;21.952;2023-07-13T12:23:24;19.70;;;17.90;;
57846;SDS011;43675;50.030;21.952;2023-07-13T12:25:51;20.20;;;18.40;;
57846;SDS011;43675;50.030;21.952;2023-07-13T12:28:39;21.10;;;19.20;;
57846;SDS011;43675;50.030;21.952;2023-07-13T12:31:54;21.60;;;19.60;;
57846;SDS011;43675;50.030;21.952;2023-07-13T12:34:17;21.30;;;19.20;;
57846;SDS011;43675;50.030;21.952;2023-07-13T12:36:48;21.30;;;19.00;;
57846;SDS011;43675;50.030;21.952;2023-07-13T12:39:22;20.60;;;18.70;;
57846;SDS011;43675;50.030;21.952;2023-07-13T12:42:00;19.40;;;17.70;;
57846;SDS011;43675;50.030;21.952;2023-07-13T12:44:43;20.00;;;18.30;;
57846;SDS011;43675;50.030;21.952;2023-07-13T12:47:12;21.20;;;19.40;;
57846;SDS011;43675;50.030;21.952;2023-07-13T12:49:41;21.30;;;19.60;;
57846;SDS011;43675;50.030;21.952;2023-07-13T12:52:17;22.60;;;20.70;;
57846;SDS011;43675;50.030;21.952;2023-07-13T12:54:57;22.60;;;20.60;;
57846;SDS011;43675;50.030;21.952;2023-07-13T12:57:29;22.80;;;20.70;;
57846;SDS011;43675;50.030;21.952;2023-07-13T12:59:55;22.80;;;20.50;;
57846;SDS011;43675;50.030;21.952;2023-07-13T13:02:26;22.80;;;20.50;;
57846;SDS011;43675;50.030;21.952;2023-07-13T13:04:58;22.80;;;20.70;;
57846;SDS011;43675;50.030;21.952;2023-07-13T13:07:25;22.90;;;20.90;;
57846;SDS011;43675;50.030;21.952;2023-07-13T13:09:52;22.80;;;20.60;;
57846;SDS011;43675;50.030;21.952;2023-07-13T13:12:19;22.70;;;20.90;;
57846;SDS011;43675;50.030;21.952;2023-07-13T13:14:46;22.90;;;20.80;;
57846;SDS011;43675;50.030;21.952;2023-07-13T13:17:16;22.10;;;20.20;;
57846;SDS011;43675;50.030;21.952;2023-07-13T13:19:46;22.20;;;20.30;;
57846;SDS011;43675;50.030;21.952;2023-07-13T13:22:13;21.60;;;19.80;;
57846;SDS011;43675;50.030;21.952;2023-07-13T13:24:40;22.20;;;20.30;;
57846;SDS011;43675;50.030;21.952;2023-07-13T13:27:10;20.90;;;19.00;;
57846;SDS011;43675;50.030;21.952;2023-07-13T13:29:45;21.00;;;19.30;;
57846;SDS011;43675;50.030;21.952;2023-07-13T13:32:13;19.90;;;18.30;;
57846;SDS011;43675;50.030;21.952;2023-07-13T13:34:41;20.30;;;18.50;;
57846;SDS011;43675;50.030;21.952;2023-07-13T13:37:30;20.50;;;18.80;;
57846;SDS011;43675;50.030;21.952;2023-07-13T13:39:55;19.70;;;18.00;;
57846;SDS011;43675;50.030;21.952;2023-07-13T13:42:22;19.10;;;17.60;;
57846;SDS011;43675;50.030;21.952;2023-07-13T13:44:48;19.10;;;17.60;;
57846;SDS011;43675;50.030;21.952;2023-07-13T13:47:33;17.60;;;16.20;;
57846;SDS011;43675;50.030;21.952;2023-07-13T13:50:00;18.00;;;16.70;;
57846;SDS011;43675;50.030;21.952;2023-07-13T13:52:27;17.80;;;16.40;;
57846;SDS011;43675;50.030;21.952;2023-07-13T13:54:53;25.10;;;23.00;;
57846;SDS011;43675;50.030;21.952;2023-07-13T13:57:20;30.20;;;27.30;;
57846;SDS011;43675;50.030;21.952;2023-07-13T13:59:46;32.10;;;28.10;;
57846;SDS011;43675;50.030;21.952;2023-07-13T14:02:31;37.30;;;34.10;;
57846;SDS011;43675;50.030;21.952;2023-07-13T14:04:59;36.60;;;33.10;;
57846;SDS011;43675;50.030;21.952;2023-07-13T14:07:27;37.00;;;33.40;;
57846;SDS011;43675;50.030;21.952;2023-07-13T14:09:55;35.60;;;32.20;;
57846;SDS011;43675;50.030;21.952;2023-07-13T14:12:24;35.50;;;31.90;;
57846;SDS011;43675;50.030;21.952;2023-07-13T14:14:50;34.40;;;31.00;;
57846;SDS011;43675;50.030;21.952;2023-07-13T14:17:20;34.40;;;30.80;;
57846;SDS011;43675;50.030;21.952;2023-07-13T14:19:51;32.50;;;29.30;;
57846;SDS011;43675;50.030;21.952;2023-07-13T14:22:19;31.40;;;28.10;;
57846;SDS011;43675;50.030;21.952;2023-07-13T14:24:46;31.20;;;27.70;;
57846;SDS011;43675;50.030;21.952;2023-07-13T14:27:13;33.80;;;28.40;;
57846;SDS011;43675;50.030;21.952;2023-07-13T14:29:39;31.60;;;28.50;;
57846;SDS011;43675;50.030;21.952;2023-07-13T14:32:08;34.00;;;29.80;;
57846;SDS011;43675;50.030;21.952;2023-07-13T14:34:37;32.40;;;29.30;;
57846;SDS011;43675;50.030;21.952;2023-07-13T14:37:05;32.90;;;29.90;;
57846;SDS011;43675;50.030;21.952;2023-07-13T14:39:38;34.20;;;31.10;;
57846;SDS011;43675;50.030;21.952;2023-07-13T14:42:04;34.80;;;31.30;;
57846;SDS011;43675;50.030;21.952;2023-07-13T14:44:32;34.70;;;31.70;;
57846;SDS011;43675;50.030;21.952;2023-07-13T14:46:59;31.30;;;28.30;;
57846;SDS011;43675;50.030;21.952;2023-07-13T14:52:02;33.40;;;30.40;;
57846;SDS011;43675;50.030;21.952;2023-07-13T14:54:35;32.00;;;29.00;;
57846;SDS011;43675;50.030;21.952;2023-07-13T14:57:02;31.00;;;28.20;;
57846;SDS011;43675;50.030;21.952;2023-07-13T14:59:29;31.70;;;28.80;;